Time,TemperatureF,DewpointF,PressureIn,WindDirection,WindDirectionDegrees,WindSpeedMPH,WindSpeedGustMPH,Humidity,HourlyPrecipIn,Conditions,Clouds,dailyrainin,SoftwareType,DateUTC
2013-02-10 00:01:00,31.0,31.0,-100.00,SE,130,11.0,19.0,99,0.00,,,-99.99,,2013-02-10 06:01:00,
2013-02-10 00:11:00,31.0,31.0,-100.00,SE,130,11.0,19.0,99,0.00,,,-99.99,,2013-02-10 06:11:00,
2013-02-10 00:21:00,31.0,31.0,-100.00,SE,130,11.0,19.0,99,0.00,,,-99.99,,2013-02-10 06:21:00,
2013-02-10 00:32:00,31.0,31.0,-100.00,SE,140,12.0,17.0,99,0.23,,,-99.99,,2013-02-10 06:32:00,
2013-02-10 00:42:00,31.0,31.0,-100.00,SE,140,14.0,18.0,99,0.23,,,-99.99,,2013-02-10 06:42:00,
2013-02-10 00:52:00,31.0,31.0,-100.00,SE,130,12.0,18.0,99,0.30,,,-99.99,,2013-02-10 06:52:00,
2013-02-10 01:01:00,32.0,32.0,-100.00,SE,145,16.0,20.0,99,0.28,,,-99.99,,2013-02-10 07:01:00,
2013-02-10 01:11:00,32.0,32.0,-100.00,SE,135,12.0,20.0,99,0.24,,,-99.99,,2013-02-10 07:11:00,
2013-02-10 01:21:00,32.0,32.0,-100.00,SE,135,12.0,20.0,99,0.24,,,-99.99,,2013-02-10 07:21:00,
2013-02-10 01:31:00,32.0,32.0,-100.00,SE,135,11.0,17.0,99,0.23,,,-99.99,,2013-02-10 07:31:00,
2013-02-10 01:41:00,32.0,32.0,-100.00,SE,135,12.0,18.0,99,0.27,,,-99.99,,2013-02-10 07:41:00,
2013-02-10 01:51:00,32.0,32.0,-100.00,SE,135,12.0,17.0,99,0.25,,,-99.99,,2013-02-10 07:51:00,
2013-02-10 02:01:00,32.0,32.0,-100.00,SE,125,11.0,16.0,99,0.24,,,-99.99,,2013-02-10 08:01:00,
2013-02-10 02:11:00,32.0,-99.9,-100.00,SE,125,9.0,16.0,-999,0.00,,,-99.99,,2013-02-10 08:11:00,
2013-02-10 02:22:00,32.0,-99.9,-100.00,SE,125,9.0,16.0,-999,0.00,,,-99.99,,2013-02-10 08:22:00,
2013-02-10 02:32:00,32.0,32.0,-100.00,SE,130,9.0,14.0,99,0.00,,,-99.99,,2013-02-10 08:32:00,
2013-02-10 02:52:00,33.0,33.0,-100.00,SE,140,14.0,18.0,99,0.00,,,-99.99,,2013-02-10 08:52:00,
2013-02-10 03:02:00,33.0,33.0,-100.00,SE,145,13.0,18.0,99,0.00,,,-99.99,,2013-02-10 09:02:00,
2013-02-10 03:11:00,33.0,33.0,-100.00,SE,145,13.0,18.0,99,0.00,,,-99.99,,2013-02-10 09:11:00,
2013-02-10 03:21:00,33.0,33.0,-100.00,SSE,150,14.0,17.0,99,0.00,,,-99.99,,2013-02-10 09:21:00,
2013-02-10 03:31:00,33.0,33.0,-100.00,SE,140,12.0,16.0,99,0.20,,,-99.99,,2013-02-10 09:31:00,
2013-02-10 03:41:00,33.0,33.0,-100.00,SE,125,11.0,17.0,99,0.40,,,-99.99,,2013-02-10 09:41:00,
2013-02-10 03:52:00,33.0,33.0,-100.00,SE,140,12.0,16.0,99,0.23,,,-99.99,,2013-02-10 09:52:00,
2013-02-10 04:01:00,33.0,33.0,-100.00,SE,140,12.0,16.0,99,0.23,,,-99.99,,2013-02-10 10:01:00,
2013-02-10 04:11:00,33.0,33.0,-100.00,SE,145,13.0,20.0,99,0.00,,,-99.99,,2013-02-10 10:11:00,
2013-02-10 04:21:00,33.0,33.0,-100.00,SE,145,13.0,20.0,99,0.00,,,-99.99,,2013-02-10 10:21:00,
2013-02-10 04:31:00,33.0,33.0,-100.00,SE,140,15.0,22.0,99,0.20,,,-99.99,,2013-02-10 10:31:00,
2013-02-10 04:41:00,33.0,33.0,-100.00,SE,135,14.0,21.0,99,0.24,,,-99.99,,2013-02-10 10:41:00,
2013-02-10 04:51:00,33.0,33.0,-100.00,SE,135,14.0,23.0,99,0.45,,,-99.99,,2013-02-10 10:51:00,
2013-02-10 05:01:00,33.0,33.0,-100.00,SE,140,11.0,20.0,99,0.41,,,-99.99,,2013-02-10 11:01:00,
2013-02-10 05:11:00,33.0,33.0,-100.00,ESE,120,15.0,20.0,99,0.24,,,-99.99,,2013-02-10 11:11:00,
2013-02-10 05:21:00,33.0,33.0,-100.00,ESE,120,15.0,20.0,99,0.24,,,-99.99,,2013-02-10 11:21:00,
2013-02-10 05:32:00,34.0,34.0,-100.00,SE,130,16.0,22.0,99,0.00,,,-99.99,,2013-02-10 11:32:00,
2013-02-10 05:42:00,34.0,34.0,-100.00,SE,130,16.0,22.0,99,0.00,,,-99.99,,2013-02-10 11:42:00,
2013-02-10 05:52:00,34.0,34.0,-100.00,SE,130,16.0,22.0,99,0.00,,,-99.99,,2013-02-10 11:52:00,
2013-02-10 06:01:00,34.0,34.0,-100.00,ESE,120,21.0,26.0,99,0.00,,,-99.99,,2013-02-10 12:01:00,
2013-02-10 06:12:00,34.0,34.0,-100.00,SE,125,17.0,27.0,99,0.00,,,-99.99,,2013-02-10 12:12:00,
2013-02-10 06:21:00,34.0,34.0,-100.00,SE,125,15.0,23.0,99,0.00,,,-99.99,,2013-02-10 12:21:00,
2013-02-10 06:32:00,35.0,35.0,-100.00,SE,130,15.0,22.0,99,0.00,,,-99.99,,2013-02-10 12:32:00,
2013-02-10 06:41:00,35.0,35.0,-100.00,SE,130,17.0,27.0,99,0.00,,,-99.99,,2013-02-10 12:41:00,
2013-02-10 06:52:00,35.0,35.0,-100.00,SE,135,19.0,26.0,99,0.00,,,-99.99,,2013-02-10 12:52:00,
2013-02-10 07:02:00,35.0,35.0,-100.00,SE,145,19.0,26.0,99,0.00,,,-99.99,,2013-02-10 13:02:00,
2013-02-10 07:11:00,35.0,35.0,-100.00,SE,145,19.0,24.0,99,0.00,,,-99.99,,2013-02-10 13:11:00,
2013-02-10 07:21:00,35.0,35.0,-100.00,SE,145,20.0,28.0,99,0.00,,,-99.99,,2013-02-10 13:21:00,
2013-02-10 07:31:00,34.0,34.0,-100.00,SSE,150,21.0,29.0,99,0.00,,,-99.99,,2013-02-10 13:31:00,
2013-02-10 07:41:00,35.0,35.0,-100.00,SE,135,17.0,25.0,99,0.24,,,-99.99,,2013-02-10 13:41:00,
2013-02-10 07:51:00,35.0,35.0,-100.00,SE,130,16.0,26.0,99,0.92,,,-99.99,,2013-02-10 13:51:00,
2013-02-10 08:02:00,35.0,35.0,-100.00,SE,135,16.0,23.0,99,0.54,,,-99.99,,2013-02-10 14:02:00,
2013-02-10 08:11:00,35.0,35.0,-100.00,ESE,115,14.0,19.0,99,0.35,,,-99.99,,2013-02-10 14:11:00,
2013-02-10 08:21:00,35.0,35.0,-100.00,ESE,115,14.0,19.0,99,0.35,,,-99.99,,2013-02-10 14:21:00,
2013-02-10 08:32:00,35.0,35.0,-100.00,SE,130,14.0,21.0,99,0.71,,,-99.99,,2013-02-10 14:32:00,
2013-02-10 08:41:00,35.0,35.0,-100.00,ESE,115,18.0,26.0,99,0.40,,,-99.99,,2013-02-10 14:41:00,
2013-02-10 08:52:00,35.0,35.0,-100.00,SE,130,15.0,24.0,99,0.23,,,-99.99,,2013-02-10 14:52:00,
2013-02-10 09:01:00,35.0,35.0,-100.00,SE,130,15.0,24.0,99,0.23,,,-99.99,,2013-02-10 15:01:00,
2013-02-10 09:11:00,36.0,36.0,-100.00,SE,130,16.0,23.0,99,0.14,,,-99.99,,2013-02-10 15:11:00,
2013-02-10 09:21:00,36.0,36.0,-100.00,SE,125,19.0,26.0,99,0.17,,,-99.99,,2013-02-10 15:21:00,
2013-02-10 09:32:00,36.0,-99.9,-100.00,ESE,115,19.0,26.0,-999,0.20,,,-99.99,,2013-02-10 15:32:00,
2013-02-10 09:42:00,36.0,-99.9,-100.00,ESE,120,18.0,26.0,-999,0.65,,,-99.99,,2013-02-10 15:42:00,
2013-02-10 09:51:00,36.0,36.0,-100.00,ESE,120,17.0,26.0,99,0.16,,,-99.99,,2013-02-10 15:51:00,
2013-02-10 10:02:00,37.0,37.0,-100.00,SE,130,16.0,27.0,99,0.00,,,-99.99,,2013-02-10 16:02:00,
2013-02-10 10:11:00,37.0,37.0,-100.00,SE,140,16.0,28.0,99,0.00,,,-99.99,,2013-02-10 16:11:00,
2013-02-10 10:21:00,37.0,37.0,-100.00,SE,145,17.0,26.0,99,0.00,,,-99.99,,2013-02-10 16:21:00,
2013-02-10 10:32:00,37.0,37.0,-100.00,SE,145,17.0,23.0,99,0.14,,,-99.99,,2013-02-10 16:32:00,
2013-02-10 10:42:00,37.0,37.0,-100.00,SE,145,17.0,24.0,99,0.79,,,-99.99,,2013-02-10 16:42:00,
2013-02-10 10:52:00,37.0,-99.9,-100.00,SE,145,17.0,24.0,-999,0.61,,,-99.99,,2013-02-10 16:52:00,
2013-02-10 11:01:00,37.0,37.0,-100.00,SSE,150,16.0,23.0,99,0.65,,,-99.99,,2013-02-10 17:01:00,
2013-02-10 11:11:00,37.0,37.0,-100.00,SSE,150,14.0,23.0,99,0.59,,,-99.99,,2013-02-10 17:11:00,
2013-02-10 11:21:00,37.0,37.0,-100.00,SSE,150,14.0,22.0,99,0.23,,,-99.99,,2013-02-10 17:21:00,
2013-02-10 11:32:00,38.0,38.0,-100.00,SSE,150,17.0,23.0,99,0.00,,,-99.99,,2013-02-10 17:32:00,
2013-02-10 11:42:00,38.0,38.0,-100.00,SSE,150,13.0,21.0,99,0.84,,,-99.99,,2013-02-10 17:42:00,
2013-02-10 11:52:00,38.0,38.0,-100.00,SE,145,16.0,22.0,99,0.40,,,-99.99,,2013-02-10 17:52:00,
2013-02-10 12:02:00,38.0,38.0,-100.00,SE,145,15.0,21.0,99,0.00,,,-99.99,,2013-02-10 18:02:00,
2013-02-10 12:11:00,39.0,39.0,-100.00,SSE,150,16.0,21.0,99,0.00,,,-99.99,,2013-02-10 18:11:00,
2013-02-10 12:21:00,39.0,39.0,-100.00,SSE,150,16.0,21.0,99,0.00,,,-99.99,,2013-02-10 18:21:00,
2013-02-10 12:32:00,39.0,39.0,-100.00,SE,145,14.0,20.0,99,0.00,,,-99.99,,2013-02-10 18:32:00,
2013-02-10 12:42:00,40.0,40.0,-100.00,SE,130,16.0,21.0,99,0.00,,,-99.99,,2013-02-10 18:42:00,
2013-02-10 12:52:00,41.0,41.0,-100.00,SSE,150,16.0,19.0,99,0.00,,,-99.99,,2013-02-10 18:52:00,
2013-02-10 13:01:00,41.0,41.0,-100.00,SSE,150,13.0,19.0,99,0.00,,,-99.99,,2013-02-10 19:01:00,
2013-02-10 13:12:00,41.0,-99.9,-100.00,SSE,155,11.0,18.0,-999,0.00,,,-99.99,,2013-02-10 19:12:00,
2013-02-10 13:21:00,41.0,41.0,-100.00,SSE,150,13.0,17.0,99,0.00,,,-99.99,,2013-02-10 19:21:00,
2013-02-10 13:32:00,42.0,42.0,-100.00,SSE,155,12.0,19.0,99,0.00,,,-99.99,,2013-02-10 19:32:00,
2013-02-10 13:42:00,43.0,43.0,-100.00,SE,145,14.0,19.0,99,0.00,,,-99.99,,2013-02-10 19:42:00,
2013-02-10 13:51:00,43.0,43.0,-100.00,SE,140,16.0,19.0,99,0.00,,,-99.99,,2013-02-10 19:51:00,
2013-02-10 14:02:00,43.0,43.0,-100.00,SE,145,14.0,19.0,99,0.00,,,-99.99,,2013-02-10 20:02:00,
2013-02-10 14:11:00,43.0,43.0,-100.00,SE,135,12.0,19.0,99,0.00,,,-99.99,,2013-02-10 20:11:00,
2013-02-10 14:21:00,44.0,44.0,-100.00,SE,140,12.0,18.0,99,0.00,,,-99.99,,2013-02-10 20:21:00,
2013-02-10 14:32:00,44.0,44.0,-100.00,SE,140,10.0,16.0,99,0.00,,,-99.99,,2013-02-10 20:32:00,
2013-02-10 14:42:00,44.0,44.0,-100.00,SE,140,10.0,16.0,99,0.00,,,-99.99,,2013-02-10 20:42:00,
2013-02-10 14:52:00,45.0,45.0,-100.00,SE,140,12.0,19.0,99,0.00,,,-99.99,,2013-02-10 20:52:00,
2013-02-10 15:02:00,45.0,45.0,-100.00,SE,145,13.0,21.0,99,0.00,,,-99.99,,2013-02-10 21:02:00,
2013-02-10 15:11:00,46.0,46.0,-100.00,SSE,150,14.0,17.0,99,0.00,,,-99.99,,2013-02-10 21:11:00,
2013-02-10 15:22:00,46.0,46.0,-100.00,SSE,150,14.0,17.0,99,0.00,,,-99.99,,2013-02-10 21:22:00,
2013-02-10 15:32:00,46.0,46.0,-100.00,SSE,155,12.0,17.0,99,0.00,,,-99.99,,2013-02-10 21:32:00,
2013-02-10 15:42:00,45.0,45.0,-100.00,SSE,150,11.0,14.0,99,0.00,,,-99.99,,2013-02-10 21:42:00,
2013-02-10 15:51:00,46.0,46.0,-100.00,South,170,9.0,14.0,99,0.00,,,-99.99,,2013-02-10 21:51:00,
2013-02-10 16:02:00,47.0,-99.9,-100.00,South,185,7.0,11.0,-999,0.00,,,-99.99,,2013-02-10 22:02:00,
2013-02-10 16:12:00,47.0,-99.9,-100.00,South,185,7.0,11.0,-999,0.00,,,-99.99,,2013-02-10 22:12:00,
2013-02-10 16:22:00,47.0,-99.9,-100.00,South,185,7.0,11.0,-999,0.00,,,-99.99,,2013-02-10 22:22:00,
2013-02-10 16:32:00,47.0,44.0,-100.00,SW,230,21.0,30.0,89,0.00,,,-99.99,,2013-02-10 22:32:00,
2013-02-10 16:42:00,46.0,43.0,-100.00,SW,230,22.0,30.0,88,0.00,,,-99.99,,2013-02-10 22:42:00,
2013-02-10 16:52:00,45.0,42.0,-100.00,WSW,240,19.0,26.0,87,0.00,,,-99.99,,2013-02-10 22:52:00,
2013-02-10 17:02:00,45.0,41.0,-100.00,WSW,240,14.0,28.0,86,0.00,,,-99.99,,2013-02-10 23:02:00,
2013-02-10 17:11:00,44.0,41.0,-100.00,WSW,240,13.0,21.0,89,0.00,,,-99.99,,2013-02-10 23:11:00,
2013-02-10 17:22:00,44.0,41.0,-100.00,SW,230,14.0,22.0,90,0.00,,,-99.99,,2013-02-10 23:22:00,
2013-02-10 17:32:00,43.0,40.0,-100.00,SW,230,14.0,18.0,90,0.00,,,-99.99,,2013-02-10 23:32:00,
2013-02-10 17:42:00,43.0,40.0,-100.00,SW,215,15.0,23.0,90,0.00,,,-99.99,,2013-02-10 23:42:00,
2013-02-10 17:52:00,43.0,40.0,-100.00,SW,225,16.0,24.0,90,0.00,,,-99.99,,2013-02-10 23:52:00,
2013-02-10 18:02:00,43.0,40.0,-100.00,SW,215,21.0,32.0,87,0.00,,,-99.99,,2013-02-11 00:02:00,
2013-02-10 18:11:00,42.0,40.0,-100.00,SW,220,22.0,31.0,90,0.00,,,-99.99,,2013-02-11 00:11:00,
2013-02-10 18:22:00,42.0,40.0,-100.00,SW,220,19.0,36.0,93,0.00,,,-99.99,,2013-02-11 00:22:00,
2013-02-10 18:32:00,41.0,40.0,-100.00,SSW,210,24.0,32.0,95,0.00,,,-99.99,,2013-02-11 00:32:00,
2013-02-10 18:42:00,40.0,40.0,-100.00,SW,215,23.0,32.0,99,0.00,,,-99.99,,2013-02-11 00:42:00,
2013-02-10 18:51:00,40.0,40.0,-100.00,SW,215,23.0,37.0,99,0.00,,,-99.99,,2013-02-11 00:51:00,
2013-02-10 19:01:00,40.0,40.0,-100.00,SW,215,23.0,37.0,99,0.00,,,-99.99,,2013-02-11 01:01:00,
2013-02-10 19:11:00,39.0,39.0,-100.00,SW,215,26.0,39.0,99,0.00,,,-99.99,,2013-02-11 01:11:00,
2013-02-10 19:21:00,39.0,39.0,-100.00,SW,215,21.0,32.0,99,0.00,,,-99.99,,2013-02-11 01:21:00,
2013-02-10 19:32:00,38.0,38.0,-100.00,SW,215,31.0,41.0,99,0.00,,,-99.99,,2013-02-11 01:32:00,
2013-02-10 19:42:00,38.0,38.0,-100.00,SW,225,22.0,39.0,99,0.00,,,-99.99,,2013-02-11 01:42:00,
2013-02-10 19:52:00,37.0,37.0,-100.00,SW,215,27.0,38.0,99,0.00,,,-99.99,,2013-02-11 01:52:00,
2013-02-10 20:01:00,37.0,37.0,-100.00,SSW,210,25.0,37.0,99,0.00,,,-99.99,,2013-02-11 02:01:00,
2013-02-10 20:11:00,37.0,37.0,-100.00,SW,220,24.0,34.0,99,0.00,,,-99.99,,2013-02-11 02:11:00,
2013-02-10 20:21:00,37.0,37.0,-100.00,SW,225,19.0,34.0,99,0.00,,,-99.99,,2013-02-11 02:21:00,
2013-02-10 20:31:00,37.0,37.0,-100.00,SW,220,21.0,34.0,99,0.08,,,-99.99,,2013-02-11 02:31:00,
2013-02-10 20:42:00,37.0,37.0,-100.00,SW,220,21.0,34.0,99,0.08,,,-99.99,,2013-02-11 02:42:00,
2013-02-10 20:52:00,36.0,36.0,-100.00,SW,215,20.0,29.0,99,0.00,,,-99.99,,2013-02-11 02:52:00,
2013-02-10 21:02:00,36.0,36.0,-100.00,SW,215,20.0,29.0,99,0.00,,,-99.99,,2013-02-11 03:02:00,
2013-02-10 21:11:00,36.0,36.0,-100.00,SW,215,26.0,34.0,99,0.00,,,-99.99,,2013-02-11 03:11:00,
2013-02-10 21:21:00,36.0,36.0,-100.00,WSW,240,25.0,32.0,99,0.10,,,-99.99,,2013-02-11 03:21:00,
2013-02-10 21:31:00,36.0,36.0,-100.00,SW,225,25.0,32.0,99,0.11,,,-99.99,,2013-02-11 03:31:00,
2013-02-10 21:42:00,35.0,35.0,-100.00,SW,235,21.0,34.0,99,0.08,,,-99.99,,2013-02-11 03:42:00,
2013-02-10 21:52:00,35.0,35.0,-100.00,WSW,245,26.0,31.0,99,0.10,,,-99.99,,2013-02-11 03:52:00,
2013-02-10 22:01:00,35.0,35.0,-100.00,SW,235,18.0,35.0,99,0.00,,,-99.99,,2013-02-11 04:01:00,
2013-02-10 22:11:00,35.0,35.0,-100.00,WSW,250,21.0,36.0,99,0.14,,,-99.99,,2013-02-11 04:11:00,
2013-02-10 22:21:00,34.0,34.0,-100.00,SW,235,26.0,35.0,99,0.00,,,-99.99,,2013-02-11 04:21:00,
2013-02-10 22:31:00,34.0,34.0,-100.00,WSW,255,22.0,39.0,99,0.00,,,-99.99,,2013-02-11 04:31:00,
2013-02-10 22:42:00,34.0,34.0,-100.00,WSW,255,21.0,42.0,99,0.00,,,-99.99,,2013-02-11 04:42:00,
2013-02-10 22:51:00,33.0,33.0,-100.00,WSW,245,26.0,34.0,99,0.00,,,-99.99,,2013-02-11 04:51:00,
2013-02-10 23:01:00,33.0,33.0,-100.00,WSW,245,26.0,34.0,99,0.00,,,-99.99,,2013-02-11 05:01:00,
2013-02-10 23:12:00,33.0,33.0,-100.00,WSW,245,26.0,34.0,99,0.00,,,-99.99,,2013-02-11 05:12:00,
2013-02-10 23:22:00,33.0,33.0,-100.00,WSW,240,24.0,41.0,99,0.00,,,-99.99,,2013-02-11 05:22:00,
2013-02-10 23:31:00,33.0,33.0,-100.00,WSW,250,29.0,37.0,99,0.00,,,-99.99,,2013-02-11 05:31:00,
2013-02-10 23:42:00,33.0,-99.9,-100.00,WSW,250,25.0,37.0,-999,0.00,,,-99.99,,2013-02-11 05:42:00,
2013-02-10 23:53:00,33.0,-99.9,-100.00,WSW,250,25.0,37.0,-999,0.00,,,-99.99,,2013-02-11 05:53:00,